Time;durP1;ratioP1;P1;durP2;ratioP2;P2;SDS_P1;SDS_P2;PMS_P1;PMS_P2;Temp;Humidity;BMP_temperature;BMP_pressure;BME280_temperature;BME280_humidity;BME280_pressure;Samples;Min_cycle;Max_cycle;Signal;HPM_P1;HPM_P2
2023/12/05 00:02:23;;;;;;;;;0.00;0.00;;;;;8.95;100.00;99775.38;5087896;27;45457;-70
2023/12/05 00:04:50;;;;;;;;;0.00;0.00;;;;;9.15;100.00;99810.22;5089000;27;46115;-70
2023/12/05 00:07:15;;;;;;;;;0.00;0.00;;;;;9.06;100.00;99802.00;5080633;27;45262;-70
2023/12/05 00:09:41;;;;;;;;;0.00;0.00;;;;;9.17;100.00;99828.59;5085677;27;45306;-71
2023/12/05 00:12:06;;;;;;;;;0.00;0.00;;;;;9.10;100.00;99825.44;5085399;27;45297;-71
2023/12/05 00:14:32;;;;;;;;;1.33;0.00;;;;;9.11;100.00;99819.25;5094465;27;46185;-71
2023/12/05 00:16:57;;;;;;;;;0.00;0.00;;;;;9.15;100.00;99823.44;5087852;27;45379;-71
2023/12/05 00:19:23;;;;;;;;;1.00;1.00;;;;;9.12;100.00;99820.97;5086864;27;45343;-71
2023/12/05 00:21:48;;;;;;;;;0.00;0.00;;;;;9.10;100.00;99812.25;5095769;27;45634;-70
2023/12/05 00:24:13;;;;;;;;;1.00;0.67;;;;;9.12;100.00;99818.31;5082831;27;47227;-71
2023/12/05 00:26:39;;;;;;;;;0.00;0.00;;;;;9.13;100.00;99825.28;5085886;27;45358;-71
2023/12/05 00:29:04;;;;;;;;;0.00;0.00;;;;;9.12;100.00;99817.47;5089707;27;45350;-71
2023/12/05 00:31:29;;;;;;;;;0.00;0.00;;;;;9.14;100.00;99821.72;5091328;27;45198;-71
2023/12/05 00:33:55;;;;;;;;;1.00;0.00;;;;;9.10;100.00;99822.81;5102169;27;46254;-71
2023/12/05 00:36:20;;;;;;;;;2.00;0.00;;;;;9.11;100.00;99823.66;5096188;27;45215;-71
2023/12/05 00:38:47;;;;;;;;;0.67;0.67;;;;;9.06;100.00;99821.31;5083346;27;45415;-71
2023/12/05 00:41:12;;;;;;;;;0.00;0.00;;;;;9.14;100.00;99827.00;5086413;27;45391;-70
2023/12/05 00:43:38;;;;;;;;;0.67;0.67;;;;;9.14;100.00;99818.22;5090729;27;45289;-70
2023/12/05 00:46:04;;;;;;;;;1.00;0.00;;;;;9.12;100.00;99822.75;5073483;27;45605;-71
2023/12/05 00:48:29;;;;;;;;;0.00;0.00;;;;;9.03;100.00;99810.91;5095003;27;45238;-71
2023/12/05 00:50:54;;;;;;;;;1.00;0.00;;;;;9.14;100.00;99821.72;5088093;27;45407;-71
2023/12/05 00:53:20;;;;;;;;;1.00;0.00;;;;;9.17;100.00;99828.59;5088627;27;45219;-71
2023/12/05 00:55:45;;;;;;;;;0.00;0.00;;;;;9.11;100.00;99819.25;5085768;27;45337;-72
2023/12/05 00:58:11;;;;;;;;;0.00;0.00;;;;;9.13;100.00;99827.09;5095093;27;45559;-71
2023/12/05 01:00:36;;;;;;;;;2.00;0.00;;;;;9.09;100.00;99833.47;5091008;27;45390;-72
2023/12/05 01:03:01;;;;;;;;;0.00;0.00;;;;;9.16;100.00;99840.94;5097479;27;45394;-71
2023/12/05 01:05:27;;;;;;;;;0.00;0.00;;;;;9.14;100.00;99836.69;5091913;27;45342;-71
2023/12/05 01:07:52;;;;;;;;;0.00;0.00;;;;;9.04;100.00;99822.31;5095199;27;45285;-71
2023/12/05 01:10:18;;;;;;;;;0.00;0.00;;;;;9.02;100.00;99814.50;5087495;27;45488;-71
2023/12/05 01:12:45;;;;;;;;;0.00;0.00;;;;;9.10;100.00;99836.00;5091062;27;45421;-71
2023/12/05 01:15:11;;;;;;;;;0.00;0.00;;;;;9.05;100.00;99822.25;5087410;27;45410;-70
2023/12/05 01:17:36;;;;;;;;;0.00;0.00;;;;;9.13;100.00;99835.00;5085673;27;45393;-70
2023/12/05 01:20:06;;;;;;;;;1.00;0.00;;;;;9.14;100.00;99849.88;5090564;27;45197;-70
2023/12/05 01:22:32;;;;;;;;;0.00;0.00;;;;;9.06;100.00;99837.13;5091395;27;46883;-70
2023/12/05 01:24:57;;;;;;;;;0.33;0.00;;;;;9.11;100.00;99839.50;5087677;27;45218;-70
2023/12/05 01:27:22;;;;;;;;;1.00;0.00;;;;;9.15;100.00;99849.81;5094849;27;45327;-70
2023/12/05 01:29:48;;;;;;;;;0.00;0.00;;;;;9.15;100.00;99860.34;5092054;27;45278;-71
2023/12/05 01:32:14;;;;;;;;;2.33;0.00;;;;;9.14;100.00;99863.91;5078501;27;47684;-69
2023/12/05 01:34:40;;;;;;;;;0.00;0.00;;;;;9.11;100.00;99858.81;5090168;27;45254;-69
2023/12/05 01:37:05;;;;;;;;;0.00;0.00;;;;;9.07;100.00;99856.41;5091709;27;45383;-69
2023/12/05 01:39:30;;;;;;;;;0.00;0.00;;;;;9.09;100.00;99855.44;5085738;27;45420;-69
2023/12/05 01:41:57;;;;;;;;;0.00;0.00;;;;;8.93;100.00;99838.75;5082827;27;48072;-70
2023/12/05 01:44:23;;;;;;;;;0.00;0.00;;;;;9.09;100.00;99870.41;5079464;27;45403;-69
2023/12/05 01:46:48;;;;;;;;;0.33;0.00;;;;;9.07;100.00;99865.19;5074590;27;45323;-70
2023/12/05 01:49:15;;;;;;;;;0.00;0.00;;;;;9.06;100.00;99865.28;5096820;27;45302;-70
2023/12/05 01:51:41;;;;;;;;;0.00;0.00;;;;;9.05;100.00;99868.84;5091595;27;45358;-70
2023/12/05 01:54:07;;;;;;;;;0.00;0.00;;;;;9.05;100.00;99884.69;5086119;27;45784;-70
2023/12/05 01:56:32;;;;;;;;;0.00;0.00;;;;;9.03;100.00;99883.94;5079850;27;45413;-70
2023/12/05 01:58:57;;;;;;;;;0.00;0.00;;;;;8.98;100.00;99873.63;5099450;27;45451;-70
2023/12/05 02:01:23;;;;;;;;;0.00;0.00;;;;;8.98;100.00;99875.41;5088897;27;47154;-70
2023/12/05 02:03:49;;;;;;;;;0.00;0.00;;;;;8.87;100.00;99862.81;5091111;27;45230;-69
2023/12/05 02:06:18;;;;;;;;;1.00;0.00;;;;;8.92;100.00;99881.03;5074298;27;45263;-70
2023/12/05 02:08:45;;;;;;;;;0.00;0.00;;;;;8.86;100.00;99885.72;5081320;27;45337;-70
2023/12/05 02:11:11;;;;;;;;;0.00;0.00;;;;;8.84;100.00;99878.78;5089202;27;45387;-69
2023/12/05 02:13:37;;;;;;;;;0.00;0.00;;;;;8.83;100.00;99900.84;5070867;27;45318;-70
2023/12/05 02:16:20;;;;;;;;;0.00;0.00;;;;;8.80;100.00;99904.47;5093263;27;45433;-70
2023/12/05 02:18:56;;;;;;;;;1.00;0.00;;;;;8.75;100.00;99897.75;5097508;27;45446;-70
2023/12/05 02:21:31;;;;;;;;;0.00;0.00;;;;;8.52;100.00;99877.06;5088560;27;46170;-70
2023/12/05 02:24:39;;;;;;;;;0.00;0.00;;;;;8.70;100.00;99918.25;5084405;27;45461;-71
2023/12/05 02:27:19;;;;;;;;;0.00;0.00;;;;;8.61;100.00;99935.41;5085831;27;45344;-70
2023/12/05 02:29:51;;;;;;;;;0.00;0.00;;;;;8.53;100.00;99915.66;5081312;27;45379;-70
2023/12/05 02:32:17;;;;;;;;;0.00;0.00;;;;;8.46;100.00;99927.44;5084026;27;46109;-70
2023/12/05 02:34:43;;;;;;;;;1.00;0.00;;;;;8.42;100.00;99926.75;5069803;27;45382;-70
2023/12/05 02:37:34;;;;;;;;;0.00;0.00;;;;;8.33;100.00;99930.72;5095319;27;45427;-69
2023/12/05 02:40:10;;;;;;;;;0.00;0.00;;;;;8.21;100.00;99926.03;5071198;27;45367;-70
2023/12/05 02:42:38;;;;;;;;;0.00;0.00;;;;;8.23;100.00;99932.09;5091798;27;46421;-70
2023/12/05 02:45:11;;;;;;;;;0.00;0.00;;;;;8.20;100.00;99934.03;5092033;27;45325;-70
2023/12/05 02:47:38;;;;;;;;;0.00;0.00;;;;;8.17;100.00;99927.16;5096406;27;46215;-70
2023/12/05 02:50:06;;;;;;;;;0.00;0.00;;;;;8.14;100.00;99934.34;5099884;27;45499;-70
2023/12/05 02:52:32;;;;;;;;;0.00;0.00;;;;;8.06;100.00;99921.56;5094197;27;45344;-70
2023/12/05 02:54:57;;;;;;;;;1.33;0.00;;;;;8.01;100.00;99928.88;5081232;27;45388;-70
2023/12/05 02:57:22;;;;;;;;;0.00;0.00;;;;;7.97;100.00;99921.19;5080811;27;45289;-70
2023/12/05 02:59:47;;;;;;;;;0.00;0.00;;;;;7.99;100.00;99937.75;5080739;27;45379;-69
2023/12/05 03:02:13;;;;;;;;;0.00;0.00;;;;;7.89;100.00;99921.56;5080675;27;45336;-71
2023/12/05 03:04:38;;;;;;;;;0.00;0.00;;;;;7.89;100.00;99929.47;5082919;27;45302;-70
2023/12/05 03:07:04;;;;;;;;;0.00;0.00;;;;;7.84;100.00;99920.97;5091418;27;45432;-70
2023/12/05 03:09:29;;;;;;;;;0.00;0.00;;;;;7.83;100.00;99920.09;5085455;27;45309;-70
2023/12/05 03:11:54;;;;;;;;;1.00;0.00;;;;;7.81;100.00;99915.84;5087208;27;46157;-70
2023/12/05 03:14:21;;;;;;;;;1.00;0.00;;;;;7.80;100.00;99930.78;5098017;27;45271;-70
2023/12/05 03:16:46;;;;;;;;;0.00;0.00;;;;;7.79;100.00;99918.53;5080993;27;45194;-70
2023/12/05 03:19:12;;;;;;;;;0.00;0.00;;;;;7.76;100.00;99907.31;5079555;27;45496;-70
2023/12/05 03:21:37;;;;;;;;;0.00;0.00;;;;;7.72;100.00;99905.78;5074937;27;48369;-70
2023/12/05 03:24:02;;;;;;;;;0.00;0.00;;;;;7.71;100.00;99912.81;5101059;27;45214;-70
2023/12/05 03:26:28;;;;;;;;;0.00;0.00;;;;;7.66;100.00;99912.19;5092025;27;45357;-71
2023/12/05 03:28:53;;;;;;;;;0.00;0.00;;;;;7.66;100.00;99937.63;5099215;27;45294;-70
2023/12/05 03:31:21;;;;;;;;;0.00;0.00;;;;;7.64;100.00;99926.34;5100499;27;45228;-70
2023/12/05 03:33:46;;;;;;;;;1.00;0.00;;;;;7.58;100.00;99927.50;5099781;27;45294;-70
2023/12/05 03:36:12;;;;;;;;;0.00;0.00;;;;;7.57;100.00;99927.56;5090540;27;45325;-70
2023/12/05 03:38:41;;;;;;;;;0.00;0.00;;;;;7.55;100.00;99930.28;5087839;27;45291;-70
2023/12/05 03:41:08;;;;;;;;;0.00;0.00;;;;;7.48;100.00;99928.88;5079024;28;46629;-70
2023/12/05 03:43:33;;;;;;;;;0.00;0.00;;;;;7.50;100.00;99936.69;5084603;27;45404;-70
2023/12/05 03:45:59;;;;;;;;;0.00;0.00;;;;;7.51;100.00;99936.63;5088627;27;45318;-70
2023/12/05 03:48:24;;;;;;;;;1.00;0.00;;;;;7.47;100.00;99935.06;5092985;27;45409;-70
2023/12/05 03:50:49;;;;;;;;;0.00;0.00;;;;;7.50;100.00;99940.16;5084099;27;45299;-70
2023/12/05 03:53:15;;;;;;;;;0.00;0.00;;;;;7.41;100.00;99934.50;5087268;27;45266;-70
2023/12/05 03:55:40;;;;;;;;;0.00;0.00;;;;;7.51;100.00;99952.41;5066072;27;45330;-70
2023/12/05 03:58:05;;;;;;;;;0.00;0.00;;;;;7.54;100.00;99956.66;5087157;27;45490;-70
2023/12/05 04:00:31;;;;;;;;;0.00;0.00;;;;;7.54;100.00;99967.19;5076041;27;46141;-70
2023/12/05 04:02:56;;;;;;;;;0.00;0.00;;;;;7.51;100.00;99962.94;5086160;27;45298;-70
2023/12/05 04:05:21;;;;;;;;;0.00;0.00;;;;;7.54;100.00;99968.03;5083199;27;45669;-70
2023/12/05 04:07:47;;;;;;;;;1.00;0.00;;;;;7.53;100.00;99966.34;5099594;27;45396;-70
2023/12/05 04:10:12;;;;;;;;;0.00;0.00;;;;;7.58;100.00;99977.50;5084106;27;47224;-70
2023/12/05 04:12:42;;;;;;;;;0.00;0.00;;;;;7.58;100.00;99987.16;5084570;27;45460;-70
2023/12/05 04:15:07;;;;;;;;;0.00;0.00;;;;;7.58;100.00;99993.28;5092319;27;45314;-70
2023/12/05 04:17:34;;;;;;;;;0.00;0.00;;;;;7.61;100.00;100002.81;5102318;27;45543;-70
2023/12/05 04:19:59;;;;;;;;;0.00;0.00;;;;;7.64;100.00;100002.66;5089964;27;45299;-70
2023/12/05 04:22:25;;;;;;;;;0.00;0.00;;;;;7.67;100.00;100007.78;5095427;27;45251;-71
2023/12/05 04:24:50;;;;;;;;;0.00;0.00;;;;;7.66;100.00;100019.22;5083803;27;45396;-70
2023/12/05 04:27:15;;;;;;;;;1.33;0.00;;;;;7.54;100.00;99991.72;5081639;27;45354;-70
2023/12/05 04:29:42;;;;;;;;;1.00;0.00;;;;;7.55;100.00;100001.34;5077338;27;46978;-70
2023/12/05 04:32:08;;;;;;;;;0.00;0.00;;;;;7.56;100.00;99995.13;5087854;27;45422;-71
2023/12/05 04:34:34;;;;;;;;;0.00;0.00;;;;;7.65;100.00;100014.91;5070851;27;45425;-71
2023/12/05 04:37:02;;;;;;;;;0.00;0.00;;;;;7.57;100.00;100002.09;5087940;27;45402;-70
2023/12/05 04:39:27;;;;;;;;;0.00;0.00;;;;;7.70;100.00;100018.16;5086791;27;45386;-70
2023/12/05 04:41:55;;;;;;;;;0.67;0.00;;;;;7.66;100.00;100020.06;5068247;27;45391;-70
2023/12/05 04:44:21;;;;;;;;;0.00;0.00;;;;;7.74;100.00;100036.38;5088173;27;45326;-70
2023/12/05 04:46:46;;;;;;;;;0.00;0.00;;;;;7.69;100.00;100022.56;5082483;27;45283;-70
2023/12/05 04:49:12;;;;;;;;;0.00;0.00;;;;;7.72;100.00;100042.63;5087342;27;45386;-70
2023/12/05 04:51:37;;;;;;;;;0.00;0.00;;;;;7.77;100.00;100035.38;5099275;27;45409;-70
2023/12/05 04:54:03;;;;;;;;;0.00;0.00;;;;;7.78;100.00;100050.25;5093971;27;45453;-70
2023/12/05 04:56:28;;;;;;;;;0.00;0.00;;;;;7.64;100.00;100019.31;5083604;27;45435;-70
2023/12/05 04:58:54;;;;;;;;;0.00;0.00;;;;;7.80;100.00;100046.59;5099376;27;45335;-71
2023/12/05 05:01:19;;;;;;;;;0.00;0.00;;;;;7.69;100.00;100032.25;5086185;27;45457;-71
2023/12/05 05:03:44;;;;;;;;;0.00;0.00;;;;;7.83;100.00;100053.50;5088011;27;45737;-70
2023/12/05 05:06:10;;;;;;;;;0.00;0.00;;;;;7.80;100.00;100054.50;5071763;28;45555;-70
2023/12/05 05:08:36;;;;;;;;;0.00;0.00;;;;;7.71;100.00;100038.28;5065534;27;47313;-70
2023/12/05 05:11:01;;;;;;;;;0.67;0.00;;;;;7.83;100.00;100072.78;5088308;27;45419;-70
2023/12/05 05:13:27;;;;;;;;;0.00;0.00;;;;;7.78;100.00;100064.25;5077315;27;45501;-70
2023/12/05 05:15:53;;;;;;;;;0.00;0.00;;;;;7.80;100.00;100067.66;5089075;27;45371;-70
2023/12/05 05:18:18;;;;;;;;;0.00;0.00;;;;;7.80;100.00;100064.16;5087457;27;45681;-70
2023/12/05 05:20:43;;;;;;;;;0.00;0.00;;;;;7.87;100.00;100076.13;5092002;27;45650;-70
2023/12/05 05:23:09;;;;;;;;;0.00;0.00;;;;;7.74;100.00;100061.84;5089230;27;45549;-70
2023/12/05 05:25:35;;;;;;;;;0.00;0.00;;;;;7.88;100.00;100089.19;5091323;27;45473;-70
2023/12/05 05:28:03;;;;;;;;;0.00;0.00;;;;;7.86;100.00;100083.16;5072393;28;48129;-70
2023/12/05 05:30:29;;;;;;;;;1.00;0.00;;;;;7.91;100.00;100096.13;5098958;27;45175;-70
2023/12/05 05:32:54;;;;;;;;;0.00;0.00;;;;;7.91;100.00;100097.88;5088075;27;45191;-70
2023/12/05 05:35:19;;;;;;;;;0.00;0.00;;;;;7.90;100.00;100114.59;5087905;27;45227;-70
2023/12/05 05:37:45;;;;;;;;;0.00;0.00;;;;;7.86;100.00;100101.59;5082405;27;47821;-70
2023/12/05 05:40:10;;;;;;;;;0.00;0.00;;;;;7.88;100.00;100100.66;5072215;27;45228;-70
2023/12/05 05:42:36;;;;;;;;;1.00;0.00;;;;;7.87;100.00;100107.72;5095948;27;45192;-70
2023/12/05 05:45:02;;;;;;;;;1.67;0.00;;;;;7.79;100.00;100094.91;5090403;27;45350;-70
2023/12/05 05:47:28;;;;;;;;;0.00;0.00;;;;;7.82;100.00;100112.31;5091237;27;45377;-70
2023/12/05 05:49:54;;;;;;;;;0.00;0.00;;;;;7.88;100.00;100113.84;5084566;27;45391;-70
2023/12/05 05:52:19;;;;;;;;;1.00;0.00;;;;;7.67;100.00;100089.34;5092721;27;45354;-70
2023/12/05 05:54:45;;;;;;;;;0.00;0.00;;;;;7.84;100.00;100124.50;5086745;27;45515;-70
2023/12/05 05:57:10;;;;;;;;;0.00;0.00;;;;;7.88;100.00;100127.00;5093094;27;45420;-70
2023/12/05 05:59:35;;;;;;;;;0.00;0.00;;;;;7.88;100.00;100137.53;5080145;27;45633;-70
2023/12/05 06:02:01;;;;;;;;;1.00;0.00;;;;;7.64;100.00;100106.16;5096617;27;45404;-70
2023/12/05 06:04:27;;;;;;;;;0.00;0.00;;;;;7.89;100.00;100140.06;5099068;27;45262;-70
2023/12/05 06:06:52;;;;;;;;;0.00;0.00;;;;;7.90;100.00;100149.69;5094514;27;45921;-70
2023/12/05 06:09:17;;;;;;;;;0.33;0.33;;;;;7.90;100.00;100152.31;5087566;27;45386;-70
2023/12/05 06:11:43;;;;;;;;;0.00;0.00;;;;;7.90;100.00;100162.00;5081083;27;45352;-70
2023/12/05 06:14:08;;;;;;;;;0.00;0.00;;;;;7.90;100.00;100162.84;5094848;27;45579;-70
2023/12/05 06:16:34;;;;;;;;;0.67;0.67;;;;;7.90;100.00;100167.25;5090061;27;46098;-70
2023/12/05 06:18:59;;;;;;;;;0.00;0.00;;;;;7.90;100.00;100165.47;5093194;27;45429;-71
2023/12/05 06:21:25;;;;;;;;;0.00;0.00;;;;;7.87;100.00;100157.72;5097112;27;45409;-70
2023/12/05 06:23:51;;;;;;;;;0.00;0.00;;;;;7.76;100.00;100149.47;5081930;27;45438;-70
2023/12/05 06:26:18;;;;;;;;;0.00;0.00;;;;;7.88;100.00;100168.16;5097156;27;45244;-70
2023/12/05 06:28:43;;;;;;;;;2.00;0.00;;;;;7.91;100.00;100182.13;5091871;27;45286;-70
2023/12/05 06:31:09;;;;;;;;;0.00;0.00;;;;;7.80;100.00;100183.47;5091588;27;45381;-70
2023/12/05 06:33:34;;;;;;;;;0.00;0.00;;;;;7.88;100.00;100188.41;5095494;27;45452;-70
2023/12/05 06:35:59;;;;;;;;;2.00;0.00;;;;;7.91;100.00;100197.94;5099926;27;46136;-70
2023/12/05 06:38:25;;;;;;;;;0.00;0.00;;;;;7.80;100.00;100191.38;5095545;27;45441;-70
2023/12/05 06:40:50;;;;;;;;;0.00;0.00;;;;;7.80;100.00;100190.53;5089444;27;45469;-70
2023/12/05 06:43:15;;;;;;;;;0.00;0.00;;;;;7.91;100.00;100213.72;5089721;27;45468;-70
2023/12/05 06:45:41;;;;;;;;;0.00;0.00;;;;;7.86;100.00;100217.41;5082792;27;46390;-70
2023/12/05 06:48:06;;;;;;;;;0.00;0.00;;;;;7.89;100.00;100216.41;5067985;27;45732;-70
2023/12/05 06:50:32;;;;;;;;;0.67;0.00;;;;;7.86;100.00;100216.56;5083646;27;45530;-70
2023/12/05 06:53:01;;;;;;;;;0.00;0.00;;;;;7.82;100.00;100214.97;5087236;27;45285;-70
2023/12/05 06:55:27;;;;;;;;;0.00;0.00;;;;;7.86;100.00;100220.06;5098239;27;46220;-70
2023/12/05 06:57:52;;;;;;;;;0.67;0.00;;;;;7.91;100.00;100232.16;5091127;27;45262;-71
2023/12/05 07:00:18;;;;;;;;;0.00;0.00;;;;;7.89;100.00;100224.31;5092905;27;45285;-71
2023/12/05 07:02:44;;;;;;;;;0.00;0.00;;;;;7.85;100.00;100228.03;5088682;27;45374;-71
2023/12/05 07:05:09;;;;;;;;;0.00;0.00;;;;;7.92;100.00;100247.03;5093682;27;46291;-71
2023/12/05 07:07:35;;;;;;;;;0.00;0.00;;;;;7.90;100.00;100256.78;5086126;27;45338;-71
2023/12/05 07:10:00;;;;;;;;;0.00;0.00;;;;;7.85;100.00;100238.56;5091583;27;45500;-71
2023/12/05 07:12:26;;;;;;;;;0.00;0.00;;;;;7.81;100.00;100247.50;5092118;27;46132;-70
2023/12/05 07:14:51;;;;;;;;;0.00;0.00;;;;;7.87;100.00;100263.03;5081942;27;48206;-70
2023/12/05 07:17:18;;;;;;;;;0.00;0.00;;;;;7.85;100.00;100267.53;5086738;27;45453;-70
2023/12/05 07:19:43;;;;;;;;;0.67;0.00;;;;;7.86;100.00;100274.47;5086789;27;45363;-70
2023/12/05 07:22:09;;;;;;;;;0.00;0.00;;;;;7.83;100.00;100278.09;5088579;27;45385;-70
2023/12/05 07:24:34;;;;;;;;;0.00;0.00;;;;;7.78;100.00;100276.63;5078971;27;46243;-70
2023/12/05 07:26:59;;;;;;;;;0.00;0.00;;;;;7.83;100.00;100288.63;5091846;27;45368;-70
2023/12/05 07:29:24;;;;;;;;;0.00;0.00;;;;;7.80;100.00;100291.41;5084306;27;45334;-71
2023/12/05 07:31:50;;;;;;;;;0.00;0.00;;;;;7.75;100.00;100290.78;5077213;27;45472;-71
2023/12/05 07:34:18;;;;;;;;;1.00;0.00;;;;;7.78;100.00;100279.25;5101811;27;46251;-71
2023/12/05 07:36:43;;;;;;;;;0.33;0.00;;;;;7.81;100.00;100295.75;5084895;27;45339;-70
2023/12/05 07:39:15;;;;;;;;;0.00;0.00;;;;;7.86;100.00;100309.56;5093415;27;45749;-71
2023/12/05 07:41:41;;;;;;;;;0.00;0.00;;;;;7.80;100.00;100314.25;5089644;27;45329;-73
2023/12/05 07:44:07;;;;;;;;;3.00;0.00;;;;;7.84;100.00;100315.81;5081923;27;46547;-71
2023/12/05 07:46:33;;;;;;;;;0.67;0.67;;;;;7.76;100.00;100304.75;5086117;27;45529;-71
2023/12/05 07:48:58;;;;;;;;;1.00;1.00;;;;;7.81;100.00;100316.81;5093354;27;45631;-71
2023/12/05 07:51:27;;;;;;;;;2.00;0.00;;;;;7.83;100.00;100322.00;5074821;27;45272;-71
2023/12/05 07:53:52;;;;;;;;;0.00;0.00;;;;;7.84;100.00;100323.72;5084259;27;46171;-70
2023/12/05 07:56:17;;;;;;;;;0.00;0.00;;;;;7.88;100.00;100327.06;5091846;27;46352;-70
2023/12/05 07:58:45;;;;;;;;;0.00;0.00;;;;;7.72;100.00;100313.72;5082216;27;45530;-71
2023/12/05 08:01:13;;;;;;;;;0.00;0.00;;;;;7.83;100.00;100336.03;5081960;27;45452;-71
2023/12/05 08:03:39;;;;;;;;;1.00;0.00;;;;;7.85;100.00;100343.88;5095304;27;45938;-71
2023/12/05 08:06:05;;;;;;;;;2.00;0.33;;;;;7.84;100.00;100350.91;5086826;27;45435;-71
2023/12/05 08:08:30;;;;;;;;;0.00;0.00;;;;;7.91;100.00;100342.75;5082732;27;45390;-70
2023/12/05 08:10:58;;;;;;;;;1.00;1.00;;;;;7.96;100.00;100356.53;5086459;27;45559;-71
2023/12/05 08:13:24;;;;;;;;;0.00;0.00;;;;;7.86;100.00;100330.63;5078887;28;48007;-70
2023/12/05 08:15:54;;;;;;;;;0.00;0.00;;;;;7.97;100.00;100358.25;5067452;27;45740;-71
2023/12/05 08:18:20;;;;;;;;;1.00;1.00;;;;;7.85;100.00;100349.13;5091394;27;46027;-71
2023/12/05 08:20:45;;;;;;;;;0.00;0.00;;;;;7.83;100.00;100345.69;5096790;27;45344;-71
2023/12/05 08:23:11;;;;;;;;;0.00;0.00;;;;;7.86;100.00;100354.31;5087583;27;46136;-70
2023/12/05 08:25:36;;;;;;;;;1.00;1.00;;;;;7.97;100.00;100368.78;5092852;27;45399;-70
2023/12/05 08:28:01;;;;;;;;;0.00;0.00;;;;;7.96;100.00;100375.84;5096330;27;45635;-71
2023/12/05 08:30:30;;;;;;;;;0.33;0.33;;;;;7.99;100.00;100378.34;5080094;27;45342;-70
2023/12/05 08:32:58;;;;;;;;;0.00;0.00;;;;;7.98;100.00;100388.94;5079350;27;45473;-71
2023/12/05 08:35:24;;;;;;;;;0.00;0.00;;;;;7.97;100.00;100374.94;5089155;27;45451;-71
2023/12/05 08:37:49;;;;;;;;;1.67;1.00;;;;;8.00;100.00;100380.06;5083923;27;45381;-70
2023/12/05 08:40:15;;;;;;;;;1.00;1.00;;;;;8.01;100.00;100379.16;5079500;27;45497;-72
2023/12/05 08:42:42;;;;;;;;;1.00;1.00;;;;;8.05;100.00;100385.13;5085147;27;45485;-71
2023/12/05 08:45:11;;;;;;;;;2.00;1.33;;;;;8.09;100.00;100402.50;5087209;27;45329;-71
2023/12/05 08:47:40;;;;;;;;;0.33;0.33;;;;;8.08;100.00;100408.72;5089183;27;45438;-71
2023/12/05 08:50:07;;;;;;;;;3.00;2.00;;;;;8.06;100.00;100392.09;5084551;27;45660;-71
2023/12/05 08:52:32;;;;;;;;;1.67;1.00;;;;;8.12;100.00;100418.16;5068866;27;47596;-71
2023/12/05 08:55:00;;;;;;;;;1.00;1.00;;;;;8.12;100.00;100419.03;5087655;27;45255;-71
2023/12/05 08:57:26;;;;;;;;;1.33;1.33;;;;;8.10;100.00;100417.38;5086709;27;45424;-71
2023/12/05 08:59:51;;;;;;;;;3.00;1.00;;;;;8.12;100.00;100426.91;5089810;27;45299;-70
2023/12/05 09:02:19;;;;;;;;;1.67;1.67;;;;;8.13;100.00;100430.41;5090674;27;46148;-71
2023/12/05 09:04:44;;;;;;;;;3.00;3.00;;;;;8.02;100.00;100404.53;5082333;27;45361;-71
2023/12/05 09:07:10;;;;;;;;;5.33;4.00;;;;;8.13;100.00;100433.06;5090462;27;45671;-70
2023/12/05 09:09:35;;;;;;;;;4.67;3.00;;;;;8.13;100.00;100430.41;5088299;27;45490;-70
2023/12/05 09:12:01;;;;;;;;;7.00;6.00;;;;;8.21;100.00;100442.31;5094115;27;45394;-70
2023/12/05 09:14:26;;;;;;;;;2.00;2.00;;;;;8.23;100.00;100434.38;5086580;27;45404;-70
2023/12/05 09:16:52;;;;;;;;;1.33;1.33;;;;;8.22;100.00;100441.41;5087894;27;45275;-70
2023/12/05 09:19:17;;;;;;;;;1.00;1.00;;;;;8.23;100.00;100448.41;5070399;27;45494;-70
2023/12/05 09:21:42;;;;;;;;;0.67;0.67;;;;;8.19;100.00;100444.19;5090857;27;45377;-70
2023/12/05 09:24:08;;;;;;;;;1.33;1.33;;;;;8.24;100.00;100444.84;5081887;27;45373;-70
2023/12/05 09:26:34;;;;;;;;;3.00;1.00;;;;;8.29;100.00;100449.94;5091692;27;45302;-70
2023/12/05 09:28:59;;;;;;;;;2.00;2.00;;;;;8.32;100.00;100455.94;5082504;27;45356;-71
2023/12/05 09:31:25;;;;;;;;;2.00;0.00;;;;;8.34;100.00;100461.97;5087692;27;45971;-70
2023/12/05 09:33:51;;;;;;;;;0.33;0.33;;;;;8.33;100.00;100460.28;5094063;27;45237;-70
2023/12/05 09:36:16;;;;;;;;;2.67;1.33;;;;;8.35;100.00;100474.25;5085530;27;45262;-70
2023/12/05 09:38:42;;;;;;;;;0.00;0.00;;;;;8.38;100.00;100475.06;5088132;27;45298;-70
2023/12/05 09:41:10;;;;;;;;;1.67;1.00;;;;;8.34;100.00;100461.16;5089449;27;46134;-70
2023/12/05 09:43:39;;;;;;;;;1.00;1.00;;;;;8.41;100.00;100474.91;5091259;27;45789;-71
2023/12/05 09:46:08;;;;;;;;;1.00;1.00;;;;;8.32;100.00;100474.38;5089344;27;45339;-71
2023/12/05 09:48:59;;;;;;;;;2.00;0.67;;;;;8.43;100.00;100481.81;5094640;27;45401;-70
2023/12/05 09:51:25;;;;;;;;;0.00;0.00;;;;;8.44;100.00;100495.88;5084322;27;45968;-70
2023/12/05 09:53:53;;;;;;;;;1.00;1.00;;;;;8.45;100.00;100489.66;5085588;27;45434;-70
2023/12/05 09:56:20;;;;;;;;;0.00;0.00;;;;;8.46;100.00;100499.28;5086149;27;45313;-70
2023/12/05 09:58:45;;;;;;;;;0.67;0.67;;;;;8.43;100.00;100480.97;5079356;27;45306;-71
2023/12/05 10:01:16;;;;;;;;;7.33;1.00;;;;;8.57;100.00;100503.16;5076943;27;46777;-71
2023/12/05 10:03:47;;;;;;;;;2.00;2.00;;;;;8.61;100.00;100499.47;5089739;27;45172;-71
2023/12/05 10:06:17;;;;;;;;;1.00;1.00;;;;;8.60;100.00;100507.44;5086118;27;45370;-71
2023/12/05 10:08:42;;;;;;;;;2.00;2.00;;;;;8.58;100.00;100510.13;5095915;27;45347;-71
2023/12/05 10:11:10;;;;;;;;;2.00;0.67;;;;;8.61;100.00;100517.03;5083348;27;46315;-71
2023/12/05 10:13:38;;;;;;;;;2.00;1.00;;;;;8.64;100.00;100528.31;5066777;27;45526;-71
2023/12/05 10:16:05;;;;;;;;;0.00;0.00;;;;;8.55;100.00;100507.63;5080539;27;45374;-71
2023/12/05 10:18:32;;;;;;;;;1.00;1.00;;;;;8.62;100.00;100516.13;5081150;27;45185;-71
2023/12/05 10:20:57;;;;;;;;;2.00;2.00;;;;;8.61;100.00;100531.09;5092961;27;45253;-71
2023/12/05 10:23:23;;;;;;;;;2.00;2.00;;;;;8.63;100.00;100531.91;5093646;27;45192;-70
2023/12/05 10:25:52;;;;;;;;;3.00;2.00;;;;;8.64;100.00;100532.72;5083184;27;45459;-70
2023/12/05 10:28:17;;;;;;;;;1.00;1.00;;;;;8.53;100.00;100522.66;5080623;27;45327;-70
2023/12/05 10:30:42;;;;;;;;;2.67;2.33;;;;;8.55;100.00;100528.72;5081084;27;46521;-70
2023/12/05 10:33:16;;;;;;;;;2.00;2.00;;;;;8.66;100.00;100539.66;5081324;27;45402;-70
2023/12/05 10:35:43;;;;;;;;;1.00;1.00;;;;;8.65;100.00;100545.00;5073855;27;45397;-70
2023/12/05 10:38:19;;;;;;;;;3.33;2.00;;;;;8.64;100.00;100549.41;5081901;27;45437;-71
2023/12/05 10:41:00;;;;;;;;;1.67;1.67;;;;;8.67;100.00;100549.28;5083586;27;45324;-70
2023/12/05 10:43:26;;;;;;;;;0.00;0.00;;;;;8.67;100.00;100553.72;5084676;27;45405;-70
2023/12/05 10:45:54;;;;;;;;;0.67;0.67;;;;;8.62;100.00;100545.13;5098877;27;45231;-70
2023/12/05 10:48:20;;;;;;;;;1.33;1.00;;;;;8.67;100.00;100557.19;5098493;27;45254;-70
2023/12/05 10:50:47;;;;;;;;;1.00;1.00;;;;;8.66;100.00;100566.03;5089766;27;46308;-70
2023/12/05 10:53:16;;;;;;;;;1.00;1.00;;;;;8.61;100.00;100554.81;5087710;27;45382;-70
2023/12/05 10:55:42;;;;;;;;;1.67;1.00;;;;;8.52;100.00;100547.31;5090353;27;45444;-71
2023/12/05 10:58:08;;;;;;;;;1.33;1.33;;;;;8.63;100.00;100575.84;5062969;28;45335;-71
2023/12/05 11:00:35;;;;;;;;;3.00;1.00;;;;;8.61;100.00;100564.50;5079486;27;45236;-71
2023/12/05 11:03:04;;;;;;;;;0.00;0.00;;;;;8.63;100.00;100581.97;5079175;27;45318;-70
2023/12/05 11:05:31;;;;;;;;;1.00;1.00;;;;;8.60;100.00;100571.56;5092960;27;45827;-71
2023/12/05 11:07:57;;;;;;;;;1.00;1.00;;;;;8.64;100.00;100578.41;5081601;27;45232;-71
2023/12/05 11:10:23;;;;;;;;;3.33;2.00;;;;;8.52;100.00;100560.47;5080159;27;46444;-70
2023/12/05 11:12:50;;;;;;;;;2.00;2.00;;;;;8.67;100.00;100582.72;5080518;27;45375;-71
2023/12/05 11:15:18;;;;;;;;;1.67;1.00;;;;;8.65;100.00;100587.16;5089560;27;45496;-70
2023/12/05 11:17:53;;;;;;;;;2.00;2.00;;;;;8.65;100.00;100581.91;5088018;27;45454;-70
2023/12/05 11:20:37;;;;;;;;;1.00;1.00;;;;;8.64;100.00;100591.59;5095382;27;45994;-71
2023/12/05 11:23:23;;;;;;;;;3.33;0.00;;;;;8.53;100.00;100570.13;5088400;27;45205;-71
2023/12/05 11:26:05;;;;;;;;;1.00;1.00;;;;;8.66;100.00;100591.53;5088052;27;45317;-71
2023/12/05 11:29:20;;;;;;;;;1.00;1.00;;;;;8.66;100.00;100587.13;5094133;27;45327;-71